VTPM

Details ICAO VTPM (MAQ)
Name Tak Mae Sot
Region Thailand
Timezone Asia/Bangkok (UTC+7.0)
Plans Departing 3
Arriving 6
Stats Elevation 690 ft / 210 m (AMSL)
Location 16.699854° 98.545056°
Runways 1
Magnetic Variation 0.657° W
Sunrise 2018-05-24 22:54:07 UTC / 2018-05-25 05:54:07 Local
Sunset 2018-05-25 11:54:13 UTC / 2018-05-25 18:54:13 Local
Advertisement - Login to hide

Runways

ID Width Length Bearing (true) Bearing (mag) Surface Threshold Offset Overrun Length
09 98 ft / 30 m 4,954 ft / 1,510 m 89.12° 89.78° Asphalt 0 ft / 0 m 197 ft / 60 m
27 98 ft / 30 m 4,954 ft / 1,510 m 269.12° 269.78° Asphalt 0 ft / 0 m 197 ft / 60 m

Map

Weather


0- 5 10 15 20 25 30 35+ Temperature / ° C

Clouds and Precipitation
Forecast for 2018-05-25 00:00 UTC. Updated 5 hours ago

Ground ~20,000 ft ~40,000 ft Winds

METAR

VTPM 250300Z VRB02KT 9999 SCT025 30/22 Q1010 NOSIG

TAF

TAF VTPM 242300Z 2500/2524 24005KT 9999 SCT035 TEMPO 2508/2515 VRB15G25KT 5000 TSRA FEW025CB BKN030

Frequencies

Tower 118.35 MHz TWR
Approach 120.65 MHz APP
Warning: Do not use this data for real-world aviation or navigation. No guarantee of current accuracy is given.